createdAt,value
2017-11-05T00:01:00.917Z,29.50
2017-11-05T00:03:32.904Z,43.00
2017-11-05T00:06:18.973Z,28.00
2017-11-05T00:12:20.441Z,28.50
2017-11-05T00:14:53.008Z,21.50
2017-11-05T00:17:24.840Z,25.75
2017-11-05T00:19:57.194Z,21.25
2017-11-05T00:22:30.381Z,22.25
2017-11-05T00:25:18.588Z,22.25
2017-11-05T00:28:13.856Z,23.75
2017-11-05T00:30:49.614Z,23.50
2017-11-05T00:37:42.191Z,21.25
2017-11-05T00:40:13.891Z,24.75
2017-11-05T00:42:50.662Z,22.50
2017-11-05T00:45:28.024Z,22.25
2017-11-05T00:48:07.639Z,22.50
2017-11-05T00:50:39.479Z,22.50
2017-11-05T00:53:10.366Z,28.25
2017-11-05T00:55:40.805Z,24.75
2017-11-05T00:58:11.684Z,25.50
2017-11-05T01:00:47.759Z,26.00
2017-11-05T01:03:21.297Z,26.25
2017-11-05T01:05:52.873Z,30.00
2017-11-05T01:08:26.987Z,30.50
2017-11-05T01:10:58.856Z,25.25
2017-11-05T01:13:32.944Z,26.50
2017-11-05T01:16:11.065Z,27.25
2017-11-05T01:18:51.580Z,33.50
2017-11-05T01:21:24.300Z,26.25
2017-11-05T01:23:57.405Z,23.50
2017-11-05T01:26:32.187Z,26.25
2017-11-05T01:31:50.635Z,26.50
2017-11-05T01:34:21.812Z,31.00
2017-11-05T01:36:52.505Z,27.25
2017-11-05T01:39:23.077Z,25.50
2017-11-05T01:41:55.408Z,29.25
2017-11-05T01:44:25.711Z,29.25
2017-11-05T01:49:07.383Z,26.50
2017-11-05T01:51:37.923Z,28.75
2017-11-05T01:54:11.103Z,23.50
2017-11-05T01:57:00.898Z,28.75
2017-11-05T01:59:40.080Z,23.00
2017-11-05T02:02:12.628Z,25.25
2017-11-05T02:04:43.522Z,28.50
2017-11-05T02:07:15.094Z,23.00
2017-11-05T02:09:45.474Z,24.50
2017-11-05T02:12:16.327Z,24.00
2017-11-05T02:14:47.247Z,23.00
2017-11-05T02:17:18.730Z,22.75
2017-11-05T02:19:50.694Z,26.00
2017-11-05T02:22:27.233Z,22.75
2017-11-05T02:24:57.798Z,22.50
2017-11-05T02:30:09.143Z,21.50
2017-11-05T02:32:58.314Z,21.50
2017-11-05T02:35:52.978Z,25.75
2017-11-05T02:38:27.629Z,24.75
2017-11-05T02:40:58.510Z,26.75
2017-11-05T02:43:28.804Z,26.00
2017-11-05T02:46:00.356Z,22.00
2017-11-05T02:48:42.042Z,20.00
2017-11-05T02:51:12.779Z,18.75
2017-11-05T02:54:51.334Z,21.50
2017-11-05T02:57:40.220Z,22.50
2017-11-05T03:00:17.780Z,22.25
2017-11-05T03:02:55.055Z,24.00
2017-11-05T03:05:26.413Z,24.25
2017-11-05T03:08:42.757Z,20.75
2017-11-05T03:11:16.291Z,26.00
2017-11-05T03:14:17.286Z,28.25
2017-11-05T03:17:01.258Z,24.50
2017-11-05T03:19:43.790Z,22.50
2017-11-05T03:22:29.715Z,25.50
2017-11-05T03:25:00.516Z,28.00
2017-11-05T03:27:31.488Z,25.50
2017-11-05T03:30:05.205Z,29.25
2017-11-05T03:32:36.423Z,33.00
2017-11-05T03:35:23.594Z,24.50
2017-11-05T03:37:55.591Z,22.50
2017-11-05T03:40:26.207Z,28.75
2017-11-05T03:42:56.658Z,28.25
2017-11-05T03:45:27.800Z,27.50
2017-11-05T03:47:59.544Z,27.00
2017-11-05T03:50:30.596Z,25.25
2017-11-05T03:53:01.368Z,29.25
2017-11-05T03:55:31.949Z,25.25
2017-11-05T03:58:02.475Z,30.75
2017-11-05T04:00:36.048Z,26.75
2017-11-05T04:03:07.352Z,28.00
2017-11-05T04:05:43.603Z,31.50
2017-11-05T04:08:24.748Z,33.25
2017-11-05T04:10:55.275Z,29.50
2017-11-05T04:13:25.699Z,32.25
2017-11-05T04:15:56.268Z,27.00
2017-11-05T04:18:26.582Z,31.75
2017-11-05T04:20:57.325Z,26.50
2017-11-05T04:23:27.926Z,32.25
2017-11-05T04:26:01.027Z,33.50
2017-11-05T04:28:31.348Z,32.50
2017-11-05T04:31:09.710Z,30.50
2017-11-05T04:33:40.479Z,34.25
2017-11-05T04:36:16.584Z,42.50
2017-11-05T04:38:46.773Z,28.75
2017-11-05T04:41:17.195Z,36.75
2017-11-05T04:43:47.596Z,32.25
2017-11-05T04:46:37.506Z,28.75
2017-11-05T04:49:19.196Z,39.00
2017-11-05T04:51:55.767Z,36.25
2017-11-05T04:54:26.576Z,38.75
2017-11-05T04:56:57.430Z,31.25
2017-11-05T04:59:29.475Z,30.00
2017-11-05T05:02:01.661Z,40.75
2017-11-05T05:04:42.542Z,35.25
2017-11-05T05:07:15.209Z,34.50
2017-11-05T05:09:47.023Z,39.75
2017-11-05T05:12:17.719Z,47.50
2017-11-05T05:14:48.131Z,32.50
2017-11-05T05:20:12.757Z,39.75
2017-11-05T05:22:43.764Z,34.75
2017-11-05T05:25:15.417Z,31.75
2017-11-05T05:27:47.021Z,31.25
2017-11-05T05:30:22.051Z,28.00
2017-11-05T05:32:55.611Z,32.00
2017-11-05T05:35:32.024Z,30.00
2017-11-05T05:38:03.443Z,24.50
2017-11-05T05:40:35.981Z,26.50
2017-11-05T05:46:18.525Z,26.50
2017-11-05T05:48:49.607Z,21.75
2017-11-05T05:56:45.476Z,23.50
2017-11-05T06:02:26.633Z,22.00
2017-11-05T06:04:58.107Z,27.75
2017-11-05T06:07:29.331Z,21.50
2017-11-05T06:13:17.904Z,31.25
2017-11-05T06:15:51.293Z,30.25
2017-11-05T06:21:26.791Z,28.00
2017-11-05T06:23:57.566Z,24.00
2017-11-05T06:26:32.028Z,27.25
2017-11-05T06:29:02.935Z,24.75
2017-11-05T06:31:33.926Z,17.75
2017-11-05T06:34:05.563Z,15.75
2017-11-05T06:36:36.039Z,13.00
2017-11-05T06:39:06.265Z,10.50
2017-11-05T06:41:36.746Z,14.00
2017-11-05T06:44:07.591Z,15.50
2017-11-05T06:46:38.238Z,13.25
2017-11-05T06:49:09.530Z,13.50
2017-11-05T06:54:20.875Z,21.00
2017-11-05T06:56:51.490Z,19.00
2017-11-05T06:59:21.944Z,20.50
2017-11-05T07:01:57.341Z,24.00
2017-11-05T07:04:28.603Z,17.75
2017-11-05T07:06:59.001Z,16.75
2017-11-05T07:09:29.427Z,18.00
2017-11-05T07:12:00.109Z,16.75
2017-11-05T07:14:30.739Z,16.00
2017-11-05T07:17:01.327Z,19.75
2017-11-05T07:19:32.780Z,15.75
2017-11-05T07:22:03.042Z,17.25
2017-11-05T07:24:33.346Z,17.50
2017-11-05T07:28:17.932Z,15.00
2017-11-05T07:30:49.281Z,15.25
2017-11-05T07:33:20.247Z,14.75
2017-11-05T07:35:50.453Z,14.00
2017-11-05T07:38:20.676Z,15.25
2017-11-05T07:40:51.731Z,13.00
2017-11-05T07:43:33.074Z,14.75
2017-11-05T07:46:14.849Z,14.75
2017-11-05T07:48:50.709Z,14.25
2017-11-05T07:51:31.281Z,11.00
2017-11-05T07:54:02.923Z,15.75
2017-11-05T07:56:34.552Z,16.50
2017-11-05T07:59:06.531Z,16.00
2017-11-05T08:01:37.035Z,11.00
2017-11-05T08:04:08.166Z,14.00
2017-11-05T08:06:38.625Z,18.25
2017-11-05T08:09:09.939Z,19.50
2017-11-05T08:11:40.628Z,11.00
2017-11-05T08:14:14.379Z,16.00
2017-11-05T08:16:46.135Z,10.50
2017-11-05T08:19:22.064Z,16.50
2017-11-05T08:21:53.701Z,10.00
2017-11-05T08:24:28.403Z,13.00
2017-11-05T08:26:58.811Z,10.00
2017-11-05T08:29:32.665Z,8.75
2017-11-05T08:32:07.694Z,10.50
2017-11-05T08:34:40.250Z,9.75
2017-11-05T08:37:11.610Z,10.00
2017-11-05T08:39:45.480Z,11.00
2017-11-05T08:42:16.536Z,13.50
2017-11-05T08:44:47.280Z,8.50
2017-11-05T08:47:21.739Z,10.00
2017-11-05T08:49:53.703Z,10.75
2017-11-05T08:52:24.434Z,8.25
2017-11-05T08:54:56.326Z,10.00
2017-11-05T08:57:26.633Z,10.50
2017-11-05T08:59:58.450Z,8.00
2017-11-05T09:02:32.015Z,9.75
2017-11-05T09:05:03.814Z,8.50
2017-11-05T09:07:35.708Z,11.00
2017-11-05T09:10:07.327Z,8.25
2017-11-05T09:12:44.531Z,9.00
2017-11-05T09:18:38.992Z,9.75
2017-11-05T09:21:17.180Z,8.00
2017-11-05T09:23:50.106Z,10.50
2017-11-05T09:26:20.636Z,9.50
2017-11-05T09:29:22.451Z,9.75
2017-11-05T09:32:05.454Z,9.25
2017-11-05T09:34:48.984Z,8.00
2017-11-05T09:37:26.237Z,11.50
2017-11-05T09:39:59.168Z,10.00
2017-11-05T09:42:31.838Z,11.00
2017-11-05T09:45:07.468Z,10.00
2017-11-05T09:47:38.899Z,10.25
2017-11-05T09:50:10.570Z,14.00
2017-11-05T09:52:42.213Z,11.50
2017-11-05T09:55:13.339Z,19.25
2017-11-05T09:57:43.997Z,14.00
2017-11-05T10:00:18.469Z,14.25
2017-11-05T10:02:54.226Z,20.75
2017-11-05T10:05:31.748Z,18.25
2017-11-05T10:08:04.362Z,18.25
2017-11-05T10:10:35.556Z,20.25
2017-11-05T10:13:07.067Z,18.75
2017-11-05T10:15:38.306Z,22.50
2017-11-05T10:18:12.744Z,12.75
2017-11-05T10:20:45.313Z,12.75
2017-11-05T10:23:16.982Z,16.50
2017-11-05T10:25:49.187Z,14.00
2017-11-05T10:28:23.602Z,12.75
2017-11-05T10:30:55.758Z,14.25
2017-11-05T10:33:32.654Z,19.25
2017-11-05T10:36:06.259Z,13.75
2017-11-05T10:38:36.619Z,16.50
2017-11-05T10:41:09.759Z,10.50
2017-11-05T10:43:49.032Z,16.50
2017-11-05T10:46:21.625Z,13.50
2017-11-05T10:48:53.013Z,14.50
2017-11-05T10:51:24.383Z,10.50
2017-11-05T10:53:55.987Z,17.50
2017-11-05T10:56:31.328Z,18.25
2017-11-05T10:59:02.560Z,16.00
2017-11-05T11:01:33.481Z,11.75
2017-11-05T11:04:04.105Z,14.50
2017-11-05T11:06:38.059Z,14.75
2017-11-05T11:09:20.308Z,12.50
2017-11-05T11:11:57.106Z,13.50
2017-11-05T11:14:31.163Z,11.75
2017-11-05T11:17:05.006Z,13.50
2017-11-05T11:19:51.358Z,15.75
2017-11-05T11:22:27.589Z,13.25
2017-11-05T11:25:13.771Z,14.00
2017-11-05T11:27:45.996Z,13.75
2017-11-05T11:30:21.311Z,13.00
2017-11-05T11:32:57.687Z,14.75
2017-11-05T11:35:46.603Z,10.00
2017-11-05T11:38:19.349Z,14.25
2017-11-05T11:40:52.696Z,16.00
2017-11-05T11:43:23.990Z,24.50
2017-11-05T11:45:56.745Z,12.50
2017-11-05T11:48:32.179Z,17.00
2017-11-05T11:51:15.191Z,15.25
2017-11-05T11:53:47.220Z,11.75
2017-11-05T11:56:20.037Z,16.50
2017-11-05T11:58:59.584Z,16.75
2017-11-05T12:01:35.246Z,16.50
2017-11-05T12:04:12.706Z,13.00
2017-11-05T12:06:43.995Z,13.25
2017-11-05T12:09:23.081Z,14.00
2017-11-05T12:11:55.325Z,11.75
2017-11-05T12:14:30.914Z,13.00
2017-11-05T12:17:03.250Z,12.25
2017-11-05T12:19:34.401Z,14.50
2017-11-05T12:22:10.216Z,11.75
2017-11-05T12:24:41.997Z,12.75
2017-11-05T12:27:13.345Z,10.75
2017-11-05T12:29:44.110Z,10.50
2017-11-05T12:32:16.979Z,13.00
2017-11-05T12:34:48.553Z,13.50
2017-11-05T12:37:19.594Z,14.00
2017-11-05T12:39:51.472Z,11.00
2017-11-05T12:42:24.213Z,11.25
2017-11-05T12:44:58.292Z,10.75
2017-11-05T12:47:29.907Z,11.75
2017-11-05T12:50:04.568Z,14.00
2017-11-05T12:52:36.424Z,13.50
2017-11-05T12:55:25.181Z,10.00
2017-11-05T13:00:52.309Z,13.75
2017-11-05T13:03:40.151Z,11.25
2017-11-05T13:06:13.293Z,12.50
2017-11-05T13:08:44.776Z,10.25
2017-11-05T13:11:15.826Z,15.25
2017-11-05T13:13:52.355Z,15.00
2017-11-05T13:16:24.689Z,14.00
2017-11-05T13:18:58.123Z,15.75
2017-11-05T13:21:29.548Z,16.50
2017-11-05T13:26:52.535Z,10.50
2017-11-05T13:29:25.537Z,13.50
2017-11-05T13:31:59.513Z,12.50
2017-11-05T13:34:30.480Z,11.75
2017-11-05T13:37:10.276Z,14.00
2017-11-05T13:39:41.187Z,13.25
2017-11-05T13:42:12.331Z,17.25
2017-11-05T13:44:43.007Z,10.75
2017-11-05T13:47:20.207Z,17.75
2017-11-05T13:49:55.259Z,13.00
2017-11-05T13:52:31.230Z,13.75
2017-11-05T13:55:08.728Z,13.25
2017-11-05T13:57:44.129Z,13.25
2017-11-05T14:00:26.315Z,15.00
2017-11-05T14:02:58.692Z,16.50
2017-11-05T14:05:31.001Z,18.00
2017-11-05T14:08:05.522Z,13.25
2017-11-05T14:10:36.979Z,12.00
2017-11-05T14:13:08.294Z,10.75
2017-11-05T14:15:50.883Z,9.00
2017-11-05T14:21:30.158Z,12.25
2017-11-05T14:24:26.320Z,9.50
2017-11-05T14:26:57.850Z,11.00
2017-11-05T14:29:29.824Z,8.00
2017-11-05T14:32:11.957Z,8.00
2017-11-05T14:34:45.624Z,8.00
2017-11-05T14:37:17.191Z,11.50
2017-11-05T14:39:48.975Z,8.00
2017-11-05T14:42:20.389Z,10.50
2017-11-05T14:51:52.173Z,10.50
2017-11-05T14:54:24.116Z,8.00
2017-11-05T14:56:55.590Z,7.75
2017-11-05T14:59:40.490Z,10.00
2017-11-05T15:02:19.731Z,11.00
2017-11-05T15:04:50.615Z,7.75
2017-11-05T15:07:22.904Z,8.00
2017-11-05T15:09:54.803Z,7.50
2017-11-05T15:12:29.958Z,9.75
2017-11-05T15:15:05.531Z,9.75
2017-11-05T15:17:37.607Z,12.75
2017-11-05T15:20:08.887Z,10.75
2017-11-05T15:22:39.864Z,10.25
2017-11-05T15:25:11.197Z,13.00
2017-11-05T15:27:47.753Z,10.00
2017-11-05T15:30:30.362Z,9.50
2017-11-05T15:33:05.958Z,9.75
2017-11-05T15:35:37.273Z,10.50
2017-11-05T15:38:17.650Z,14.25
2017-11-05T15:41:09.899Z,10.50
2017-11-05T15:43:41.616Z,15.00
2017-11-05T15:46:17.025Z,15.25
2017-11-05T15:48:49.432Z,15.75
2017-11-05T15:51:20.232Z,12.00
2017-11-05T15:53:50.995Z,13.50
2017-11-05T15:56:24.796Z,14.25
2017-11-05T15:58:58.312Z,14.25
2017-11-05T16:01:29.531Z,14.50
2017-11-05T16:04:05.750Z,12.25
2017-11-05T16:06:36.667Z,13.75
2017-11-05T16:09:10.351Z,11.00
2017-11-05T16:11:41.852Z,14.50
2017-11-05T16:14:12.645Z,14.00
2017-11-05T16:16:43.530Z,12.00
2017-11-05T16:19:14.293Z,13.75
2017-11-05T16:24:43.909Z,11.00
2017-11-05T16:27:15.178Z,11.00
2017-11-05T16:33:15.431Z,12.75
2017-11-05T16:35:47.044Z,10.50
2017-11-05T16:41:09.473Z,7.50
2017-11-05T16:43:45.905Z,10.00
2017-11-05T16:46:22.644Z,8.25
2017-11-05T16:48:59.970Z,10.00
2017-11-05T16:51:33.158Z,10.00
2017-11-05T16:54:06.720Z,9.00
2017-11-05T16:56:40.090Z,10.00
2017-11-05T16:59:15.634Z,11.25
2017-11-05T17:01:48.443Z,11.00
2017-11-05T17:04:24.825Z,11.00
2017-11-05T17:06:56.438Z,14.00
2017-11-05T17:09:29.410Z,10.25
2017-11-05T17:18:43.699Z,13.75
2017-11-05T17:21:26.999Z,16.00
2017-11-05T17:24:02.012Z,12.75
2017-11-05T17:26:34.754Z,13.00
2017-11-05T17:29:06.737Z,18.00
2017-11-05T17:31:39.571Z,18.50
2017-11-05T17:34:11.541Z,16.25
2017-11-05T17:36:46.495Z,15.75
2017-11-05T17:39:19.430Z,13.50
2017-11-05T17:44:39.966Z,16.50
2017-11-05T17:47:15.981Z,15.25
2017-11-05T17:49:47.278Z,20.00
2017-11-05T17:52:19.579Z,16.25
2017-11-05T17:54:50.796Z,16.25
2017-11-05T17:57:24.386Z,17.25
2017-11-05T17:59:59.946Z,18.00
2017-11-05T18:02:37.868Z,13.75
2017-11-05T18:05:12.127Z,17.25
2017-11-05T18:07:43.450Z,16.50
2017-11-05T18:10:14.429Z,14.00
2017-11-05T18:12:49.543Z,13.25
2017-11-05T18:15:36.056Z,13.50
2017-11-05T18:18:21.216Z,17.25
2017-11-05T18:20:53.154Z,17.25
2017-11-05T18:23:29.689Z,20.25
2017-11-05T18:26:01.200Z,21.50
2017-11-05T18:28:33.193Z,19.00
2017-11-05T18:31:03.907Z,24.75
2017-11-05T18:33:35.180Z,23.75
2017-11-05T18:39:10.825Z,26.25
2017-11-05T18:41:44.559Z,19.25
2017-11-05T18:44:36.423Z,20.50
2017-11-05T18:47:13.407Z,23.25
2017-11-05T18:52:14.745Z,19.00
2017-11-05T18:54:50.557Z,32.00
2017-11-05T18:57:26.871Z,28.25
2017-11-05T19:00:01.100Z,32.00
2017-11-05T19:02:48.510Z,30.25
2017-11-05T19:05:19.388Z,34.75
2017-11-05T19:07:51.513Z,34.75
2017-11-05T19:10:23.106Z,27.25
2017-11-05T19:17:08.047Z,20.25
2017-11-05T19:19:39.096Z,21.50
2017-11-05T19:22:10.485Z,27.00
2017-11-05T19:24:41.995Z,31.00
2017-11-05T19:27:14.254Z,31.00
2017-11-05T19:29:52.068Z,49.00
2017-11-05T19:32:24.730Z,35.25
2017-11-05T19:34:56.214Z,41.50
2017-11-05T19:37:26.960Z,46.25
2017-11-05T19:40:01.084Z,48.75
2017-11-05T19:42:33.496Z,33.50
2017-11-05T19:45:12.167Z,54.75
2017-11-05T19:47:45.460Z,55.75
2017-11-05T19:50:24.036Z,50.50
2017-11-05T19:53:00.632Z,62.50
2017-11-05T19:55:32.202Z,52.75
2017-11-05T19:58:04.826Z,47.50
2017-11-05T20:00:36.117Z,71.50
2017-11-05T20:03:08.064Z,81.00
2017-11-05T20:05:40.800Z,68.25
2017-11-05T20:08:11.543Z,75.75
2017-11-05T20:10:44.061Z,70.50
2017-11-05T20:13:29.564Z,67.50
2017-11-05T20:16:09.968Z,48.00
2017-11-05T20:18:44.036Z,47.75
2017-11-05T20:21:14.830Z,56.50
2017-11-05T20:23:46.365Z,44.25
2017-11-05T20:26:19.177Z,45.75
2017-11-05T20:28:50.233Z,36.00
2017-11-05T20:31:21.445Z,36.75
2017-11-05T20:34:06.947Z,27.50
2017-11-05T20:36:39.430Z,33.00
2017-11-05T20:39:11.251Z,31.50
2017-11-05T20:41:42.103Z,34.25
2017-11-05T20:44:12.705Z,36.25
2017-11-05T20:46:44.601Z,32.50
2017-11-05T20:49:15.726Z,27.75
2017-11-05T20:59:18.947Z,23.50
2017-11-05T21:01:50.374Z,26.75
2017-11-05T21:04:21.117Z,19.25
2017-11-05T21:06:52.381Z,23.75
2017-11-05T21:09:23.900Z,23.00
2017-11-05T21:11:56.742Z,26.50
2017-11-05T21:14:33.437Z,26.50
2017-11-05T21:17:06.452Z,23.00
2017-11-05T21:19:40.106Z,24.25
2017-11-05T21:22:13.114Z,32.00
2017-11-05T21:24:43.970Z,36.75
2017-11-05T21:27:14.970Z,24.75
2017-11-05T21:29:46.284Z,26.50
2017-11-05T21:32:17.604Z,18.75
2017-11-05T21:34:48.394Z,23.25
2017-11-05T21:37:19.374Z,20.50
2017-11-05T21:39:51.192Z,20.00
2017-11-05T21:42:22.981Z,26.50
2017-11-05T21:44:54.355Z,17.00
2017-11-05T21:47:26.002Z,23.50
2017-11-05T21:49:56.393Z,22.00
2017-11-05T21:52:27.287Z,26.00
2017-11-05T21:54:59.066Z,21.75
2017-11-05T21:57:30.728Z,23.50
2017-11-05T22:00:04.768Z,26.50
2017-11-05T22:02:36.097Z,24.50
2017-11-05T22:05:08.538Z,30.25
2017-11-05T22:07:39.035Z,20.50
2017-11-05T22:10:09.574Z,23.00
2017-11-05T22:12:41.788Z,26.50
2017-11-05T22:15:19.153Z,27.50
2017-11-05T22:17:51.035Z,33.50
2017-11-05T22:20:21.796Z,30.25
2017-11-05T22:22:54.878Z,23.00
2017-11-05T22:28:26.560Z,27.75
2017-11-05T22:30:58.167Z,26.25
2017-11-05T22:33:29.716Z,29.50
2017-11-05T22:36:07.150Z,28.25
2017-11-05T22:38:47.548Z,21.00
2017-11-05T22:41:27.464Z,27.00
2017-11-05T22:44:12.530Z,25.50
2017-11-05T22:46:53.521Z,29.50
2017-11-05T22:49:26.344Z,36.25
2017-11-05T22:51:58.624Z,31.50
2017-11-05T22:54:39.414Z,40.50
2017-11-05T22:57:16.056Z,40.50
2017-11-05T22:59:48.803Z,36.75
2017-11-05T23:02:40.786Z,36.00
2017-11-05T23:05:14.691Z,31.00
2017-11-05T23:07:46.725Z,31.00
2017-11-05T23:10:27.345Z,32.50
2017-11-05T23:16:18.331Z,36.00
2017-11-05T23:18:50.057Z,30.50
2017-11-05T23:21:21.221Z,32.25
2017-11-05T23:26:45.875Z,35.25
2017-11-05T23:29:19.437Z,40.25
2017-11-05T23:31:52.198Z,41.25
2017-11-05T23:34:27.312Z,34.75
2017-11-05T23:36:58.307Z,51.00
2017-11-05T23:39:29.166Z,49.25
2017-11-05T23:41:59.822Z,51.25
2017-11-05T23:44:37.792Z,41.25
2017-11-05T23:47:12.505Z,37.25
2017-11-05T23:49:43.957Z,39.00
2017-11-05T23:52:19.229Z,45.00
2017-11-05T23:54:55.927Z,37.00
2017-11-05T23:57:28.025Z,33.25
